sensor_id;sensor_type;location;lat;lon;timestamp;pressure;altitude;pressure_sealevel;temperature;humidity
70902;BME280;58548;47.210;8.618;2023-07-08T00:00:33;94244.09;;;29.64;27.15
70902;BME280;58548;47.210;8.618;2023-07-08T00:03:01;94249.94;;;29.67;26.76
70902;BME280;58548;47.210;8.618;2023-07-08T00:05:27;94350.47;;;30.30;26.89
70902;BME280;58548;47.210;8.618;2023-07-08T00:07:53;94348.38;;;30.27;26.48
70902;BME280;58548;47.210;8.618;2023-07-08T00:10:24;94240.72;;;29.59;26.24
70902;BME280;58548;47.210;8.618;2023-07-08T00:12:55;94340.63;;;30.26;25.95
70902;BME280;58548;47.210;8.618;2023-07-08T00:15:25;94320.25;;;30.11;26.08
70902;BME280;58548;47.210;8.618;2023-07-08T00:17:54;94349.31;;;30.22;26.43
70902;BME280;58548;47.210;8.618;2023-07-08T00:20:32;94349.94;;;30.19;26.72
70902;BME280;58548;47.210;8.618;2023-07-08T00:23:00;94228.56;;;29.39;26.53
70902;BME280;58548;47.210;8.618;2023-07-08T00:25:30;94328.50;;;29.91;26.45
70902;BME280;58548;47.210;8.618;2023-07-08T00:27:58;94340.75;;;29.98;26.49
70902;BME280;58548;47.210;8.618;2023-07-08T00:30:31;94252.47;;;29.26;26.70
70902;BME280;58548;47.210;8.618;2023-07-08T00:32:58;94366.50;;;29.90;26.59
70902;BME280;58548;47.210;8.618;2023-07-08T00:38:00;94353.47;;;29.83;27.17
70902;BME280;58548;47.210;8.618;2023-07-08T00:40:32;94352.38;;;29.84;26.98
70902;BME280;58548;47.210;8.618;2023-07-08T00:43:03;94343.31;;;29.80;26.96
70902;BME280;58548;47.210;8.618;2023-07-08T00:45:47;94265.16;;;29.26;27.33
70902;BME280;58548;47.210;8.618;2023-07-08T00:48:24;94320.41;;;29.69;26.77
70902;BME280;58548;47.210;8.618;2023-07-08T00:50:54;94258.44;;;29.37;26.37
70902;BME280;58548;47.210;8.618;2023-07-08T00:55:55;94363.50;;;29.91;26.39
70902;BME280;58548;47.210;8.618;2023-07-08T00:58:30;94363.63;;;29.86;26.12
70902;BME280;58548;47.210;8.618;2023-07-08T01:01:01;94260.19;;;29.19;26.17
70902;BME280;58548;47.210;8.618;2023-07-08T01:03:31;94284.47;;;29.28;25.66
70902;BME280;58548;47.210;8.618;2023-07-08T01:06:03;94378.78;;;29.82;26.09
70902;BME280;58548;47.210;8.618;2023-07-08T01:08:32;94349.66;;;29.61;26.05
70902;BME280;58548;47.210;8.618;2023-07-08T01:11:04;94373.84;;;29.75;26.26
70902;BME280;58548;47.210;8.618;2023-07-08T01:13:37;94270.66;;;29.07;25.82
70902;BME280;58548;47.210;8.618;2023-07-08T01:16:06;94360.53;;;29.56;25.73
70902;BME280;58548;47.210;8.618;2023-07-08T01:18:36;94370.38;;;29.61;26.08
70902;BME280;58548;47.210;8.618;2023-07-08T01:21:27;94278.63;;;29.12;26.69
70902;BME280;58548;47.210;8.618;2023-07-08T01:23:50;94261.00;;;29.06;26.69
70902;BME280;58548;47.210;8.618;2023-07-08T01:26:16;94278.19;;;29.18;26.79
70902;BME280;58548;47.210;8.618;2023-07-08T01:28:43;94377.13;;;29.72;27.14
70902;BME280;58548;47.210;8.618;2023-07-08T01:31:09;94377.56;;;29.66;27.62
70902;BME280;58548;47.210;8.618;2023-07-08T01:33:40;94278.53;;;29.03;28.12
70902;BME280;58548;47.210;8.618;2023-07-08T01:36:10;94359.44;;;29.57;27.44
70902;BME280;58548;47.210;8.618;2023-07-08T01:38:43;94367.56;;;29.66;27.45
70902;BME280;58548;47.210;8.618;2023-07-08T01:41:12;94386.38;;;29.80;27.70
70902;BME280;58548;47.210;8.618;2023-07-08T01:43:40;94389.06;;;29.80;27.64
70902;BME280;58548;47.210;8.618;2023-07-08T01:46:20;94288.28;;;29.13;27.75
70902;BME280;58548;47.210;8.618;2023-07-08T01:48:56;94360.41;;;29.61;27.96
70902;BME280;58548;47.210;8.618;2023-07-08T01:51:23;94310.44;;;29.32;28.24
70902;BME280;58548;47.210;8.618;2023-07-08T01:53:52;94387.28;;;29.75;27.74
70902;BME280;58548;47.210;8.618;2023-07-08T01:56:22;94398.34;;;29.74;27.34
70902;BME280;58548;47.210;8.618;2023-07-08T01:58:48;94315.47;;;29.11;27.66
70902;BME280;58548;47.210;8.618;2023-07-08T02:01:14;94398.66;;;29.72;27.41
70902;BME280;58548;47.210;8.618;2023-07-08T02:03:43;94394.31;;;29.62;27.42
70902;BME280;58548;47.210;8.618;2023-07-08T02:06:15;94389.94;;;29.53;27.86
70902;BME280;58548;47.210;8.618;2023-07-08T02:08:45;94391.22;;;29.55;27.87
70902;BME280;58548;47.210;8.618;2023-07-08T02:11:11;94376.19;;;29.54;27.02
70902;BME280;58548;47.210;8.618;2023-07-08T02:13:37;94278.06;;;28.87;27.40
70902;BME280;58548;47.210;8.618;2023-07-08T02:16:02;94343.81;;;29.31;27.59
70902;BME280;58548;47.210;8.618;2023-07-08T02:18:31;94273.28;;;28.84;26.85
70902;BME280;58548;47.210;8.618;2023-07-08T02:20:58;94339.84;;;29.29;26.66
70902;BME280;58548;47.210;8.618;2023-07-08T02:23:29;94270.41;;;28.94;26.57
70902;BME280;58548;47.210;8.618;2023-07-08T02:25:55;94361.81;;;29.59;26.16
70902;BME280;58548;47.210;8.618;2023-07-08T02:28:23;94339.94;;;29.38;25.98
70902;BME280;58548;47.210;8.618;2023-07-08T02:30:52;94260.06;;;28.87;26.05
70902;BME280;58548;47.210;8.618;2023-07-08T02:33:20;94270.28;;;28.99;26.02
70902;BME280;58548;47.210;8.618;2023-07-08T02:35:46;94355.78;;;29.76;25.88
70902;BME280;58548;47.210;8.618;2023-07-08T02:38:15;94345.94;;;29.71;25.41
70902;BME280;58548;47.210;8.618;2023-07-08T02:40:42;94346.22;;;29.70;25.33
70902;BME280;58548;47.210;8.618;2023-07-08T02:43:08;94339.03;;;29.79;25.44
70902;BME280;58548;47.210;8.618;2023-07-08T02:45:36;94346.56;;;29.91;24.62
70902;BME280;58548;47.210;8.618;2023-07-08T02:48:07;94234.56;;;29.22;25.20
70902;BME280;58548;47.210;8.618;2023-07-08T02:50:33;94272.59;;;29.43;25.02
70902;BME280;58548;47.210;8.618;2023-07-08T02:53:02;94335.47;;;29.92;24.94
70902;BME280;58548;47.210;8.618;2023-07-08T02:55:31;94374.41;;;30.09;25.25
70902;BME280;58548;47.210;8.618;2023-07-08T02:57:57;94370.44;;;30.06;24.90
70902;BME280;58548;47.210;8.618;2023-07-08T03:00:25;94281.34;;;29.48;24.97
70902;BME280;58548;47.210;8.618;2023-07-08T03:02:56;94315.94;;;29.64;25.00
70902;BME280;58548;47.210;8.618;2023-07-08T03:05:22;94276.50;;;29.37;25.25
70902;BME280;58548;47.210;8.618;2023-07-08T03:07:48;94400.28;;;30.19;25.21
70902;BME280;58548;47.210;8.618;2023-07-08T03:10:14;94400.13;;;30.15;25.28
70902;BME280;58548;47.210;8.618;2023-07-08T03:12:42;94399.13;;;30.11;25.25
70902;BME280;58548;47.210;8.618;2023-07-08T03:15:08;94297.28;;;29.45;24.91
70902;BME280;58548;47.210;8.618;2023-07-08T03:17:37;94351.66;;;29.78;25.36
70902;BME280;58548;47.210;8.618;2023-07-08T03:20:03;94290.31;;;29.44;25.33
70902;BME280;58548;47.210;8.618;2023-07-08T03:22:31;94292.88;;;29.49;25.81
70902;BME280;58548;47.210;8.618;2023-07-08T03:25:02;94409.91;;;30.11;26.11
70902;BME280;58548;47.210;8.618;2023-07-08T03:27:30;94431.16;;;30.13;26.10
70902;BME280;58548;47.210;8.618;2023-07-08T03:29:58;94338.13;;;29.47;25.89
70902;BME280;58548;47.210;8.618;2023-07-08T03:32:27;94450.78;;;30.13;26.03
70902;BME280;58548;47.210;8.618;2023-07-08T03:34:53;94467.44;;;30.15;25.93
70902;BME280;58548;47.210;8.618;2023-07-08T03:37:19;94484.09;;;30.17;25.90
70902;BME280;58548;47.210;8.618;2023-07-08T03:39:49;94311.13;;;29.01;25.45
70902;BME280;58548;47.210;8.618;2023-07-08T03:42:18;94373.81;;;29.39;25.59
70902;BME280;58548;47.210;8.618;2023-07-08T03:44:46;94464.28;;;29.99;25.74
70902;BME280;58548;47.210;8.618;2023-07-08T03:47:14;94408.13;;;29.70;26.02
70902;BME280;58548;47.210;8.618;2023-07-08T03:49:40;94379.47;;;29.51;26.16
70902;BME280;58548;47.210;8.618;2023-07-08T03:52:14;94461.22;;;30.06;25.81
70902;BME280;58548;47.210;8.618;2023-07-08T03:54:41;94455.19;;;30.09;26.11
70902;BME280;58548;47.210;8.618;2023-07-08T03:57:07;94459.69;;;30.14;25.89
70902;BME280;58548;47.210;8.618;2023-07-08T03:59:36;94433.28;;;30.02;25.96
70902;BME280;58548;47.210;8.618;2023-07-08T04:02:02;94454.59;;;30.12;26.17
70902;BME280;58548;47.210;8.618;2023-07-08T04:04:30;94424.91;;;29.89;26.65
70902;BME280;58548;47.210;8.618;2023-07-08T04:06:56;94444.75;;;29.93;26.61
70902;BME280;58548;47.210;8.618;2023-07-08T04:09:25;94482.75;;;30.06;27.28
70902;BME280;58548;47.210;8.618;2023-07-08T04:11:53;94487.16;;;30.02;26.62
70902;BME280;58548;47.210;8.618;2023-07-08T04:14:19;94481.16;;;29.91;27.58
70902;BME280;58548;47.210;8.618;2023-07-08T04:16:55;94342.38;;;28.97;26.87
70902;BME280;58548;47.210;8.618;2023-07-08T04:19:24;94296.16;;;28.67;26.90
70902;BME280;58548;47.210;8.618;2023-07-08T04:21:50;94479.66;;;29.85;26.78
70902;BME280;58548;47.210;8.618;2023-07-08T04:24:20;94493.16;;;29.71;27.27
70902;BME280;58548;47.210;8.618;2023-07-08T04:26:48;94496.16;;;29.55;27.68
70902;BME280;58548;47.210;8.618;2023-07-08T04:29:17;94504.22;;;29.55;27.34
70902;BME280;58548;47.210;8.618;2023-07-08T04:31:43;94494.16;;;29.47;27.77
70902;BME280;58548;47.210;8.618;2023-07-08T04:34:09;94513.31;;;29.59;27.83
70902;BME280;58548;47.210;8.618;2023-07-08T04:36:43;94476.63;;;29.36;27.82
70902;BME280;58548;47.210;8.618;2023-07-08T04:39:11;94528.03;;;29.62;27.68
70902;BME280;58548;47.210;8.618;2023-07-08T04:41:40;94435.97;;;28.95;27.53
70902;BME280;58548;47.210;8.618;2023-07-08T04:44:09;94514.47;;;29.39;27.49
70902;BME280;58548;47.210;8.618;2023-07-08T04:49:10;94447.47;;;28.82;27.94
70902;BME280;58548;47.210;8.618;2023-07-08T04:51:37;94572.59;;;29.54;28.77
70902;BME280;58548;47.210;8.618;2023-07-08T04:54:06;94538.75;;;29.20;28.18
70902;BME280;58548;47.210;8.618;2023-07-08T04:59:08;94482.84;;;28.89;28.04
70902;BME280;58548;47.210;8.618;2023-07-08T05:01:34;94587.63;;;29.55;28.04
70902;BME280;58548;47.210;8.618;2023-07-08T05:04:04;94492.09;;;28.97;27.95
70902;BME280;58548;47.210;8.618;2023-07-08T05:06:35;94501.66;;;28.89;28.65
70902;BME280;58548;47.210;8.618;2023-07-08T05:09:02;94592.53;;;29.53;28.10
70902;BME280;58548;47.210;8.618;2023-07-08T05:11:31;94570.25;;;29.33;28.53
70902;BME280;58548;47.210;8.618;2023-07-08T05:14:00;94495.44;;;28.74;28.74
70902;BME280;58548;47.210;8.618;2023-07-08T05:16:29;94616.72;;;29.53;28.75
70902;BME280;58548;47.210;8.618;2023-07-08T05:18:55;94622.63;;;29.55;28.86
70902;BME280;58548;47.210;8.618;2023-07-08T05:21:21;94507.72;;;28.81;28.41
70902;BME280;58548;47.210;8.618;2023-07-08T05:23:49;94631.09;;;29.62;28.29
70902;BME280;58548;47.210;8.618;2023-07-08T05:26:19;94536.94;;;29.01;28.78
70902;BME280;58548;47.210;8.618;2023-07-08T05:28:47;94627.31;;;29.63;28.63
70902;BME280;58548;47.210;8.618;2023-07-08T05:31:15;94528.38;;;28.99;28.62
70902;BME280;58548;47.210;8.618;2023-07-08T05:33:41;94634.50;;;29.68;28.60
70902;BME280;58548;47.210;8.618;2023-07-08T05:36:09;94662.81;;;29.79;28.63
70902;BME280;58548;47.210;8.618;2023-07-08T05:38:40;94549.19;;;29.08;28.62
70902;BME280;58548;47.210;8.618;2023-07-08T05:41:08;94590.97;;;29.33;28.61
70902;BME280;58548;47.210;8.618;2023-07-08T05:43:39;94674.66;;;29.78;28.45
70902;BME280;58548;47.210;8.618;2023-07-08T05:46:10;94560.94;;;29.12;29.40
70902;BME280;58548;47.210;8.618;2023-07-08T05:48:39;94663.81;;;29.84;29.22
70902;BME280;58548;47.210;8.618;2023-07-08T05:51:05;94673.03;;;29.97;28.88
70902;BME280;58548;47.210;8.618;2023-07-08T05:53:31;94668.56;;;30.06;29.32
70902;BME280;58548;47.210;8.618;2023-07-08T05:55:57;94561.66;;;29.31;29.34
70902;BME280;58548;47.210;8.618;2023-07-08T05:58:27;94679.03;;;30.21;29.33
70902;BME280;58548;47.210;8.618;2023-07-08T06:00:57;94605.28;;;29.89;28.79
70902;BME280;58548;47.210;8.618;2023-07-08T06:03:23;94679.00;;;30.49;28.70
70902;BME280;58548;47.210;8.618;2023-07-08T06:05:52;94682.78;;;30.48;28.50
70902;BME280;58548;47.210;8.618;2023-07-08T06:08:18;94663.53;;;30.41;28.82
70902;BME280;58548;47.210;8.618;2023-07-08T06:10:45;94580.69;;;29.82;28.90
70902;BME280;58548;47.210;8.618;2023-07-08T06:13:16;94602.00;;;29.92;28.79
70902;BME280;58548;47.210;8.618;2023-07-08T06:15:44;94678.41;;;30.38;28.72
70902;BME280;58548;47.210;8.618;2023-07-08T06:18:15;94704.75;;;30.56;28.47
70902;BME280;58548;47.210;8.618;2023-07-08T06:20:53;94622.78;;;30.06;28.49
70902;BME280;58548;47.210;8.618;2023-07-08T06:23:24;94607.22;;;30.03;28.67
70902;BME280;58548;47.210;8.618;2023-07-08T06:25:52;94699.06;;;30.71;28.65
70902;BME280;58548;47.210;8.618;2023-07-08T06:28:18;94703.72;;;30.79;28.73
70902;BME280;58548;47.210;8.618;2023-07-08T06:30:46;94612.25;;;30.32;28.03
70902;BME280;58548;47.210;8.618;2023-07-08T06:33:12;94662.78;;;30.77;28.50
70902;BME280;58548;47.210;8.618;2023-07-08T06:35:40;94708.66;;;31.14;28.13
70902;BME280;58548;47.210;8.618;2023-07-08T06:38:06;94704.63;;;31.11;27.82
70902;BME280;58548;47.210;8.618;2023-07-08T06:40:35;94682.69;;;31.04;27.37
70902;BME280;58548;47.210;8.618;2023-07-08T06:43:04;94600.97;;;30.58;27.93
70902;BME280;58548;47.210;8.618;2023-07-08T06:45:32;94672.66;;;31.05;27.65
70902;BME280;58548;47.210;8.618;2023-07-08T06:47:58;94694.44;;;31.22;27.79
70902;BME280;58548;47.210;8.618;2023-07-08T06:50:24;94714.03;;;31.14;27.78
70902;BME280;58548;47.210;8.618;2023-07-08T06:52:50;94674.63;;;30.90;28.21
70902;BME280;58548;47.210;8.618;2023-07-08T06:55:16;94695.44;;;31.12;28.34
70902;BME280;58548;47.210;8.618;2023-07-08T06:57:42;94697.97;;;31.32;28.43
70902;BME280;58548;47.210;8.618;2023-07-08T07:00:13;94680.84;;;31.59;28.90
70902;BME280;58548;47.210;8.618;2023-07-08T07:02:40;94640.22;;;31.64;28.10
70902;BME280;58548;47.210;8.618;2023-07-08T07:05:08;94663.25;;;31.93;27.71
70902;BME280;58548;47.210;8.618;2023-07-08T07:07:35;94688.56;;;32.38;27.37
70902;BME280;58548;47.210;8.618;2023-07-08T07:10:03;94560.22;;;31.68;27.17
70902;BME280;58548;47.210;8.618;2023-07-08T07:12:33;94693.50;;;32.53;26.37
70902;BME280;58548;47.210;8.618;2023-07-08T07:15:01;94576.31;;;31.73;25.97
70902;BME280;58548;47.210;8.618;2023-07-08T07:17:27;94598.25;;;31.89;26.58
70902;BME280;58548;47.210;8.618;2023-07-08T07:19:53;94584.25;;;31.79;26.29
70902;BME280;58548;47.210;8.618;2023-07-08T07:22:20;94643.47;;;32.15;26.11
70902;BME280;58548;47.210;8.618;2023-07-08T07:24:48;94689.97;;;32.44;26.10
70902;BME280;58548;47.210;8.618;2023-07-08T07:27:16;94571.00;;;31.68;26.21
70902;BME280;58548;47.210;8.618;2023-07-08T07:29:50;94668.81;;;32.37;26.62
70902;BME280;58548;47.210;8.618;2023-07-08T07:32:22;94630.19;;;32.28;26.91
70902;BME280;58548;47.210;8.618;2023-07-08T07:34:50;94605.84;;;32.19;26.38
70902;BME280;58548;47.210;8.618;2023-07-08T07:37:21;94482.38;;;31.53;26.38
70902;BME280;58548;47.210;8.618;2023-07-08T07:39:49;94636.75;;;32.71;25.77
70902;BME280;58548;47.210;8.618;2023-07-08T07:42:17;94627.53;;;32.72;25.70
70902;BME280;58548;47.210;8.618;2023-07-08T07:44:44;94645.38;;;32.90;26.27
70902;BME280;58548;47.210;8.618;2023-07-08T07:47:17;94603.69;;;32.74;25.66
70902;BME280;58548;47.210;8.618;2023-07-08T07:49:43;94539.44;;;32.36;26.02
70902;BME280;58548;47.210;8.618;2023-07-08T07:52:11;94551.84;;;32.45;26.29
70902;BME280;58548;47.210;8.618;2023-07-08T07:54:38;94613.88;;;32.95;25.88
70902;BME280;58548;47.210;8.618;2023-07-08T07:57:07;94633.28;;;33.14;26.19
70902;BME280;58548;47.210;8.618;2023-07-08T07:59:33;94517.47;;;32.46;26.72
70902;BME280;58548;47.210;8.618;2023-07-08T08:02:02;94547.06;;;32.69;26.95
70902;BME280;58548;47.210;8.618;2023-07-08T08:04:31;94634.69;;;33.38;26.76
70902;BME280;58548;47.210;8.618;2023-07-08T08:06:59;94635.66;;;33.42;26.49
70902;BME280;58548;47.210;8.618;2023-07-08T08:09:26;94534.47;;;32.82;26.63
70902;BME280;58548;47.210;8.618;2023-07-08T08:11:52;94632.75;;;33.56;26.09
70902;BME280;58548;47.210;8.618;2023-07-08T08:14:18;94627.94;;;33.62;26.54
70902;BME280;58548;47.210;8.618;2023-07-08T08:16:46;94616.78;;;33.63;26.69
70902;BME280;58548;47.210;8.618;2023-07-08T08:19:12;94623.91;;;33.77;26.19
70902;BME280;58548;47.210;8.618;2023-07-08T08:21:40;94601.47;;;33.67;26.98
70902;BME280;58548;47.210;8.618;2023-07-08T08:24:06;94578.22;;;33.66;26.65
70902;BME280;58548;47.210;8.618;2023-07-08T08:26:35;94517.31;;;33.43;25.76
70902;BME280;58548;47.210;8.618;2023-07-08T08:29:05;94523.00;;;33.59;26.06
70902;BME280;58548;47.210;8.618;2023-07-08T08:31:36;94587.19;;;33.97;26.09
70902;BME280;58548;47.210;8.618;2023-07-08T08:34:04;94588.41;;;34.08;25.71
70902;BME280;58548;47.210;8.618;2023-07-08T08:36:30;94611.44;;;34.23;25.92
70902;BME280;58548;47.210;8.618;2023-07-08T08:38:56;94524.59;;;33.60;26.02
70902;BME280;58548;47.210;8.618;2023-07-08T08:41:34;94595.44;;;34.09;25.99
70902;BME280;58548;47.210;8.618;2023-07-08T08:44:05;94510.72;;;33.61;25.49
70902;BME280;58548;47.210;8.618;2023-07-08T08:46:52;94597.28;;;34.18;26.05
70902;BME280;58548;47.210;8.618;2023-07-08T08:49:44;94601.28;;;34.11;26.41
70902;BME280;58548;47.210;8.618;2023-07-08T08:52:14;94608.63;;;34.11;26.00
70902;BME280;58548;47.210;8.618;2023-07-08T08:54:41;94602.69;;;34.18;26.54
70902;BME280;58548;47.210;8.618;2023-07-08T08:57:31;94592.16;;;34.25;26.39
70902;BME280;58548;47.210;8.618;2023-07-08T09:00:01;94517.13;;;33.87;25.65
70902;BME280;58548;47.210;8.618;2023-07-08T09:02:53;94596.88;;;34.58;25.56
70902;BME280;58548;47.210;8.618;2023-07-08T09:05:25;94591.53;;;34.70;25.74
70902;BME280;58548;47.210;8.618;2023-07-08T09:10:44;94595.34;;;35.12;25.15
70902;BME280;58548;47.210;8.618;2023-07-08T09:13:35;94582.72;;;35.28;24.87
70902;BME280;58548;47.210;8.618;2023-07-08T09:16:28;94588.00;;;35.58;24.83
70902;BME280;58548;47.210;8.618;2023-07-08T09:27:11;94586.50;;;37.01;22.61
70902;BME280;58548;47.210;8.618;2023-07-08T09:29:39;94573.63;;;37.59;21.66
70902;BME280;58548;47.210;8.618;2023-07-08T09:32:31;94572.72;;;38.19;20.90
70902;BME280;58548;47.210;8.618;2023-07-08T09:35:06;94569.56;;;38.72;19.95
70902;BME280;58548;47.210;8.618;2023-07-08T09:37:38;94471.56;;;38.43;18.90
70902;BME280;58548;47.210;8.618;2023-07-08T09:42:43;94490.72;;;39.10;17.80
70902;BME280;58548;47.210;8.618;2023-07-08T09:45:16;94541.16;;;39.59;17.22
70902;BME280;58548;47.210;8.618;2023-07-08T09:47:44;94547.13;;;39.68;16.68
70902;BME280;58548;47.210;8.618;2023-07-08T09:50:19;94568.81;;;40.04;16.82
70902;BME280;58548;47.210;8.618;2023-07-08T09:52:52;94577.94;;;40.38;17.29
70902;BME280;58548;47.210;8.618;2023-07-08T09:55:20;94574.63;;;40.87;16.54
70902;BME280;58548;47.210;8.618;2023-07-08T09:57:51;94558.66;;;41.26;15.74
70902;BME280;58548;47.210;8.618;2023-07-08T10:00:30;94577.56;;;41.80;14.06
70902;BME280;58548;47.210;8.618;2023-07-08T10:03:08;94583.69;;;42.11;15.42
70902;BME280;58548;47.210;8.618;2023-07-08T10:05:43;94575.91;;;42.20;15.51
70902;BME280;58548;47.210;8.618;2023-07-08T10:08:21;94497.94;;;41.66;15.49
70902;BME280;58548;47.210;8.618;2023-07-08T10:11:00;94578.63;;;42.13;16.13
70902;BME280;58548;47.210;8.618;2023-07-08T10:13:45;94584.81;;;42.03;16.09
70902;BME280;58548;47.210;8.618;2023-07-08T10:18:50;94557.59;;;41.80;16.32
70902;BME280;58548;47.210;8.618;2023-07-08T10:26:49;94579.84;;;41.33;16.27
70902;BME280;58548;47.210;8.618;2023-07-08T10:29:34;94519.66;;;40.68;16.60
70902;BME280;58548;47.210;8.618;2023-07-08T10:32:26;94596.72;;;40.70;16.68
70902;BME280;58548;47.210;8.618;2023-07-08T10:35:15;94583.81;;;40.40;17.08
70902;BME280;58548;47.210;8.618;2023-07-08T10:38:10;94582.94;;;40.09;17.07
70902;BME280;58548;47.210;8.618;2023-07-08T10:40:56;94555.72;;;39.66;18.05
70902;BME280;58548;47.210;8.618;2023-07-08T10:43:43;94576.13;;;39.49;18.37
70902;BME280;58548;47.210;8.618;2023-07-08T10:46:26;94560.22;;;39.12;18.60
70902;BME280;58548;47.210;8.618;2023-07-08T10:52:01;94489.16;;;38.10;18.73
70902;BME280;58548;47.210;8.618;2023-07-08T10:57:50;94584.28;;;38.31;18.78
70902;BME280;58548;47.210;8.618;2023-07-08T11:05:46;94574.94;;;37.81;20.12
70902;BME280;58548;47.210;8.618;2023-07-08T11:13:28;94570.19;;;37.78;20.43
70902;BME280;58548;47.210;8.618;2023-07-08T11:16:14;94571.78;;;37.95;20.31
70902;BME280;58548;47.210;8.618;2023-07-08T11:21:24;94573.38;;;38.31;20.07
70902;BME280;58548;47.210;8.618;2023-07-08T11:26:59;94578.03;;;38.67;19.40
70902;BME280;58548;47.210;8.618;2023-07-08T11:29:48;94496.03;;;38.40;19.16
70902;BME280;58548;47.210;8.618;2023-07-08T11:32:25;94463.97;;;38.37;18.88
70902;BME280;58548;47.210;8.618;2023-07-08T11:35:00;94563.44;;;39.18;17.97
70902;BME280;58548;47.210;8.618;2023-07-08T11:37:32;94559.69;;;39.26;18.65
70902;BME280;58548;47.210;8.618;2023-07-08T11:42:44;94480.84;;;39.25;18.30
70902;BME280;58548;47.210;8.618;2023-07-08T11:47:49;94554.03;;;40.08;18.93
70902;BME280;58548;47.210;8.618;2023-07-08T11:50:22;94497.56;;;39.93;18.07
70902;BME280;58548;47.210;8.618;2023-07-08T11:53:01;94555.47;;;40.56;19.22
70902;BME280;58548;47.210;8.618;2023-07-08T11:56:18;94465.53;;;40.20;18.41
70902;BME280;58548;47.210;8.618;2023-07-08T11:58:27;94449.03;;;40.17;17.70
70902;BME280;58548;47.210;8.618;2023-07-08T12:01:04;94555.50;;;40.90;18.02
70902;BME280;58548;47.210;8.618;2023-07-08T12:03:37;94557.88;;;40.92;17.18
70902;BME280;58548;47.210;8.618;2023-07-08T12:09:00;94524.59;;;40.55;16.70
70902;BME280;58548;47.210;8.618;2023-07-08T12:11:45;94477.41;;;40.32;16.99
70902;BME280;58548;47.210;8.618;2023-07-08T12:14:14;94533.00;;;40.70;16.85
70902;BME280;58548;47.210;8.618;2023-07-08T12:16:42;94551.75;;;40.68;17.00
70902;BME280;58548;47.210;8.618;2023-07-08T12:19:16;94513.28;;;40.61;17.10
70902;BME280;58548;47.210;8.618;2023-07-08T12:21:43;94546.00;;;40.80;17.40
70902;BME280;58548;47.210;8.618;2023-07-08T12:24:14;94544.19;;;40.92;17.23
70902;BME280;58548;47.210;8.618;2023-07-08T12:26:43;94530.09;;;40.93;17.49
70902;BME280;58548;47.210;8.618;2023-07-08T12:29:15;94456.63;;;40.61;17.35
70902;BME280;58548;47.210;8.618;2023-07-08T12:31:42;94519.81;;;41.17;16.61
70902;BME280;58548;47.210;8.618;2023-07-08T12:34:15;94526.03;;;41.14;17.00
70902;BME280;58548;47.210;8.618;2023-07-08T12:36:46;94532.09;;;41.30;17.33
70902;BME280;58548;47.210;8.618;2023-07-08T12:39:16;94540.78;;;41.43;17.06
70902;BME280;58548;47.210;8.618;2023-07-08T12:41:47;94536.13;;;41.44;17.31
70902;BME280;58548;47.210;8.618;2023-07-08T12:44:21;94510.94;;;41.27;16.75
70902;BME280;58548;47.210;8.618;2023-07-08T12:46:55;94546.22;;;41.36;16.46
70902;BME280;58548;47.210;8.618;2023-07-08T12:49:22;94459.28;;;40.58;16.79
70902;BME280;58548;47.210;8.618;2023-07-08T12:51:52;94537.59;;;41.00;17.54
70902;BME280;58548;47.210;8.618;2023-07-08T12:54:20;94544.41;;;41.10;17.43
70902;BME280;58548;47.210;8.618;2023-07-08T12:56:48;94538.28;;;41.24;17.60
70902;BME280;58548;47.210;8.618;2023-07-08T12:59:19;94539.13;;;41.32;17.31
70902;BME280;58548;47.210;8.618;2023-07-08T13:01:51;94539.63;;;41.44;17.62
70902;BME280;58548;47.210;8.618;2023-07-08T13:04:19;94519.66;;;41.44;17.41
70902;BME280;58548;47.210;8.618;2023-07-08T13:06:47;94459.31;;;40.95;17.27
70902;BME280;58548;47.210;8.618;2023-07-08T13:12:03;94452.97;;;40.84;17.41
70902;BME280;58548;47.210;8.618;2023-07-08T13:14:34;94456.44;;;40.77;16.52
70902;BME280;58548;47.210;8.618;2023-07-08T13:17:05;94454.06;;;40.76;16.92
70902;BME280;58548;47.210;8.618;2023-07-08T13:19:33;94459.63;;;40.83;17.36
70902;BME280;58548;47.210;8.618;2023-07-08T13:22:03;94530.16;;;41.35;16.91
70902;BME280;58548;47.210;8.618;2023-07-08T13:24:31;94451.34;;;40.79;17.74
70902;BME280;58548;47.210;8.618;2023-07-08T13:27:03;94526.56;;;41.27;17.49
70902;BME280;58548;47.210;8.618;2023-07-08T13:29:36;94508.28;;;41.00;17.32
70902;BME280;58548;47.210;8.618;2023-07-08T13:32:08;94527.00;;;40.95;17.70
70902;BME280;58548;47.210;8.618;2023-07-08T13:34:36;94513.53;;;40.79;17.96
70902;BME280;58548;47.210;8.618;2023-07-08T13:37:02;94504.88;;;40.73;18.02
70902;BME280;58548;47.210;8.618;2023-07-08T13:39:33;94456.38;;;40.39;18.04
70902;BME280;58548;47.210;8.618;2023-07-08T13:42:03;94449.00;;;40.44;17.56
70902;BME280;58548;47.210;8.618;2023-07-08T13:44:34;94524.28;;;40.95;17.20
70902;BME280;58548;47.210;8.618;2023-07-08T13:47:27;94452.81;;;40.35;17.15
70902;BME280;58548;47.210;8.618;2023-07-08T13:50:07;94485.16;;;40.60;17.71
70902;BME280;58548;47.210;8.618;2023-07-08T13:52:45;94429.91;;;40.17;17.22
70902;BME280;58548;47.210;8.618;2023-07-08T13:55:19;94437.50;;;40.00;17.72
70902;BME280;58548;47.210;8.618;2023-07-08T13:57:55;94479.75;;;40.33;17.76
70902;BME280;58548;47.210;8.618;2023-07-08T14:00:29;94512.88;;;40.59;17.54
70902;BME280;58548;47.210;8.618;2023-07-08T14:02:57;94442.19;;;40.00;17.79
70902;BME280;58548;47.210;8.618;2023-07-08T14:05:23;94527.09;;;40.37;17.55
70902;BME280;58548;47.210;8.618;2023-07-08T14:07:54;94525.19;;;40.42;17.96
70902;BME280;58548;47.210;8.618;2023-07-08T14:10:22;94439.81;;;39.71;17.37
70902;BME280;58548;47.210;8.618;2023-07-08T14:12:48;94519.53;;;40.27;17.07
70902;BME280;58548;47.210;8.618;2023-07-08T14:15:14;94517.31;;;40.09;17.43
70902;BME280;58548;47.210;8.618;2023-07-08T14:17:40;94535.41;;;40.18;17.84
70902;BME280;58548;47.210;8.618;2023-07-08T14:20:15;94522.78;;;40.09;17.59
70902;BME280;58548;47.210;8.618;2023-07-08T14:22:44;94528.91;;;39.99;17.59